Time;durP1;ratioP1;P1;durP2;ratioP2;P2;SDS_P1;SDS_P2;PMS_P1;PMS_P2;Temp;Humidity;BMP_temperature;BMP_pressure;BME280_temperature;BME280_humidity;BME280_pressure;Samples;Min_cycle;Max_cycle;Signal;HPM_P1;HPM_P2
2022/04/12 00:02:50;;;;;;;12.93;8.27;;;10.30;57.10;;;;;;9189278;19;20023;-63
2022/04/12 00:05:55;;;;;;;17.10;7.90;;;10.30;57.20;;;;;;9189780;19;20345;-61
2022/04/12 00:09:01;;;;;;;16.45;8.68;;;10.20;57.20;;;;;;9184777;19;20078;-61
2022/04/12 00:12:08;;;;;;;17.23;8.02;;;10.20;57.30;;;;;;9188684;19;20014;-61
2022/04/12 00:15:13;;;;;;;14.00;8.02;;;10.20;57.30;;;;;;9187543;19;20038;-60
2022/04/12 00:21:39;;;;;;;14.98;7.57;;;10.10;57.30;;;;;;9187676;19;20018;-61
2022/04/12 00:24:44;;;;;;;17.73;8.13;;;10.10;57.30;;;;;;9187580;19;20017;-62
2022/04/12 00:27:49;;;;;;;19.63;7.07;;;10.10;57.40;;;;;;9190211;19;20014;-60
2022/04/12 00:30:54;;;;;;;12.02;7.57;;;10.00;57.50;;;;;;9187015;19;20047;-61
2022/04/12 00:34:01;;;;;;;15.02;7.50;;;10.00;57.50;;;;;;9187317;19;20018;-60
2022/04/12 00:37:07;;;;;;;16.73;8.18;;;10.00;57.60;;;;;;9184090;19;20043;-61
2022/04/12 00:40:13;;;;;;;13.50;7.50;;;9.90;57.50;;;;;;9183858;19;20025;-61
2022/04/12 00:43:20;;;;;;;16.55;7.68;;;9.90;57.60;;;;;;9186169;19;20017;-62
2022/04/12 00:46:25;;;;;;;12.35;7.50;;;9.80;57.60;;;;;;9186053;19;20010;-61
2022/04/12 00:49:32;;;;;;;15.88;7.30;;;9.80;57.60;;;;;;9186399;19;20044;-61
2022/04/12 00:52:41;;;;;;;25.45;8.48;;;9.80;57.70;;;;;;9187809;19;20010;-61
2022/04/12 00:55:46;;;;;;;13.98;6.63;;;9.80;57.70;;;;;;9186212;19;20165;-60
2022/04/12 00:58:51;;;;;;;11.60;7.22;;;9.80;57.80;;;;;;9186110;19;20471;-61
2022/04/12 01:01:56;;;;;;;19.02;8.18;;;9.70;57.90;;;;;;9182842;19;20559;-62
2022/04/12 01:05:05;;;;;;;13.35;7.50;;;9.70;57.90;;;;;;9185419;19;20010;-60
2022/04/12 01:08:11;;;;;;;11.48;7.32;;;9.70;58.00;;;;;;9183888;19;20018;-61
2022/04/12 01:11:16;;;;;;;13.00;6.50;;;9.70;58.00;;;;;;9187392;19;20019;-61
2022/04/12 01:14:21;;;;;;;15.13;7.63;;;9.60;58.00;;;;;;9184637;19;20018;-62
2022/04/12 01:17:26;;;;;;;16.70;7.35;;;9.60;58.60;;;;;;9186163;19;20589;-60
2022/04/12 01:20:34;;;;;;;12.07;7.03;;;9.60;58.10;;;;;;9185146;19;20340;-60
2022/04/12 01:23:46;;;;;;;14.95;6.95;;;9.50;58.10;;;;;;9184050;19;20022;-61
2022/04/12 01:26:54;;;;;;;13.15;7.80;;;9.50;58.20;;;;;;9184933;19;20011;-60
2022/04/12 01:29:59;;;;;;;11.23;6.93;;;9.50;58.20;;;;;;9184712;19;20019;-61
2022/04/12 01:33:04;;;;;;;14.90;7.75;;;9.40;58.20;;;;;;9186316;19;20017;-61
2022/04/12 01:36:09;;;;;;;17.00;7.35;;;9.40;58.80;;;;;;9180133;19;20019;-62
2022/04/12 01:39:15;;;;;;;14.88;7.55;;;9.40;58.30;;;;;;9185476;19;20081;-61
2022/04/12 01:42:22;;;;;;;14.70;7.03;;;9.40;58.40;;;;;;9184624;19;20454;-64
2022/04/12 01:45:27;;;;;;;13.63;7.32;;;9.40;58.40;;;;;;9183242;19;20539;-61
2022/04/12 01:48:32;;;;;;;15.70;7.50;;;9.30;58.40;;;;;;9183420;19;20015;-61
2022/04/12 01:51:37;;;;;;;12.80;6.50;;;9.30;58.40;;;;;;9184748;19;20014;-61
2022/04/12 01:54:42;;;;;;;15.40;7.38;;;9.20;58.40;;;;;;9183036;19;20015;-62
2022/04/12 01:57:50;;;;;;;12.98;6.50;;;9.20;58.50;;;;;;9183402;19;20029;-61
2022/04/12 02:00:55;;;;;;;11.88;6.60;;;9.20;58.50;;;;;;9183838;19;20013;-61
2022/04/12 02:04:00;;;;;;;12.70;6.95;;;9.20;58.60;;;;;;9184457;19;20014;-62
2022/04/12 02:07:06;;;;;;;13.48;7.10;;;9.20;58.70;;;;;;9183253;19;20018;-61
2022/04/12 02:10:12;;;;;;;11.75;7.13;;;9.10;58.70;;;;;;9183439;19;20022;-61
2022/04/12 02:13:20;;;;;;;11.30;7.18;;;9.10;58.70;;;;;;9183194;19;20089;-61
2022/04/12 02:16:25;;;;;;;9.85;6.55;;;9.10;58.70;;;;;;9184297;19;20015;-60
2022/04/12 02:19:30;;;;;;;12.98;6.40;;;9.10;58.80;;;;;;9184143;19;20014;-63
2022/04/12 02:22:35;;;;;;;13.02;6.72;;;9.00;58.80;;;;;;9182584;19;20015;-63
2022/04/12 02:25:40;;;;;;;10.63;6.18;;;9.00;58.80;;;;;;9183384;19;20024;-62
2022/04/12 02:28:48;;;;;;;12.65;5.95;;;8.90;58.80;;;;;;9183794;19;20026;-63
2022/04/12 02:31:53;;;;;;;13.95;6.63;;;8.90;58.90;;;;;;9182095;19;20006;-62
2022/04/12 02:35:00;;;;;;;16.05;6.63;;;8.90;58.90;;;;;;9182781;19;20025;-61
2022/04/12 02:38:06;;;;;;;9.80;6.00;;;8.90;59.00;;;;;;9176725;19;20018;-66
2022/04/12 02:41:11;;;;;;;12.35;5.72;;;8.90;59.00;;;;;;9181267;19;20021;-67
2022/04/12 02:44:19;;;;;;;9.38;6.00;;;8.80;59.00;;;;;;9183119;19;20486;-66
2022/04/12 02:47:28;;;;;;;13.32;6.45;;;8.80;59.10;;;;;;9181235;19;20026;-66
2022/04/12 02:50:33;;;;;;;13.80;6.78;;;8.80;59.10;;;;;;9183075;19;20940;-66
2022/04/12 02:53:38;;;;;;;9.68;6.18;;;8.80;59.10;;;;;;9182790;19;20025;-67
2022/04/12 02:56:43;;;;;;;15.68;6.00;;;8.80;59.10;;;;;;9180450;19;20026;-66
2022/04/12 02:59:50;;;;;;;12.05;5.90;;;8.70;59.20;;;;;;9182310;19;20030;-67
2022/04/12 03:02:55;;;;;;;13.02;6.60;;;8.70;59.20;;;;;;9180350;19;20364;-66
2022/04/12 03:06:00;;;;;;;8.63;5.60;;;8.70;59.20;;;;;;9179025;19;20051;-66
2022/04/12 03:09:08;;;;;;;15.68;6.90;;;8.70;59.30;;;;;;9179730;19;20014;-66
2022/04/12 03:12:13;;;;;;;17.23;6.00;;;8.70;59.40;;;;;;9181633;19;20496;-66
2022/04/12 03:15:21;;;;;;;12.25;5.85;;;8.70;59.30;;;;;;9180538;19;20010;-66
2022/04/12 03:18:26;;;;;;;10.43;6.10;;;8.60;59.30;;;;;;9182566;19;20089;-67
2022/04/12 03:21:31;;;;;;;10.90;6.30;;;8.60;59.30;;;;;;9180318;19;20499;-66
2022/04/12 03:24:36;;;;;;;10.95;5.93;;;8.60;59.40;;;;;;9182515;19;20011;-67
2022/04/12 03:27:41;;;;;;;9.82;6.05;;;8.60;59.50;;;;;;9181362;19;20086;-67
2022/04/12 03:30:49;;;;;;;9.43;5.55;;;8.60;59.50;;;;;;9180684;19;20024;-67
2022/04/12 03:33:54;;;;;;;12.68;5.30;;;8.50;59.50;;;;;;9180384;19;20017;-66
2022/04/12 03:36:59;;;;;;;16.17;6.32;;;8.50;59.50;;;;;;9178398;19;20085;-65
2022/04/12 03:40:04;;;;;;;11.75;6.07;;;8.50;59.60;;;;;;9181213;19;20014;-66
2022/04/12 03:43:09;;;;;;;11.15;5.60;;;8.50;59.60;;;;;;9180786;19;20018;-67
2022/04/12 03:46:17;;;;;;;15.15;5.82;;;8.50;59.60;;;;;;9179431;19;20014;-67
2022/04/12 03:49:22;;;;;;;10.70;5.97;;;8.50;59.70;;;;;;9179782;19;20371;-67
2022/04/12 03:52:27;;;;;;;13.98;5.85;;;8.50;59.70;;;;;;9178760;19;20467;-67
2022/04/12 03:55:38;;;;;;;13.93;6.18;;;8.50;59.80;;;;;;9180547;19;20029;-66
2022/04/12 03:58:43;;;;;;;8.73;5.30;;;8.50;59.80;;;;;;9179648;19;20050;-67
2022/04/12 04:01:51;;;;;;;7.55;4.82;;;8.50;59.80;;;;;;9178152;19;20021;-66
2022/04/12 04:04:56;;;;;;;9.40;5.78;;;8.50;59.80;;;;;;9178681;19;20027;-66
2022/04/12 04:08:01;;;;;;;9.70;5.93;;;8.50;59.80;;;;;;9179948;19;20476;-67
2022/04/12 04:11:06;;;;;;;8.27;5.65;;;8.50;59.90;;;;;;9184501;19;20479;-67
2022/04/12 04:14:13;;;;;;;9.20;5.22;;;8.40;59.80;;;;;;9190170;19;20344;-67
2022/04/12 04:17:21;;;;;;;9.30;5.55;;;8.40;59.90;;;;;;9189365;19;20099;-67
2022/04/12 04:20:26;;;;;;;9.05;5.32;;;8.40;60.00;;;;;;9185511;19;20015;-67
2022/04/12 04:23:31;;;;;;;10.90;6.57;;;8.40;60.00;;;;;;9187486;19;20324;-67
2022/04/12 04:26:36;;;;;;;9.32;5.13;;;8.40;60.00;;;;;;9189056;19;20017;-67
2022/04/12 04:29:41;;;;;;;9.55;5.80;;;8.40;60.00;;;;;;9187645;19;20014;-66
2022/04/12 04:32:50;;;;;;;14.80;6.18;;;8.40;60.10;;;;;;9187486;19;20055;-65
2022/04/12 04:35:55;;;;;;;11.55;5.82;;;8.40;60.20;;;;;;9183855;19;20010;-66
2022/04/12 04:39:01;;;;;;;11.73;5.70;;;8.40;60.10;;;;;;9188784;19;20045;-68
2022/04/12 04:42:07;;;;;;;11.70;5.53;;;8.40;60.10;;;;;;9184677;19;20026;-67
2022/04/12 04:45:13;;;;;;;11.95;5.97;;;8.40;60.10;;;;;;9188052;19;20021;-68
2022/04/12 04:48:20;;;;;;;12.82;6.45;;;8.30;60.10;;;;;;9185443;19;20105;-67
2022/04/12 04:51:25;;;;;;;15.93;5.80;;;8.30;60.20;;;;;;9185812;19;20352;-66
2022/04/12 04:54:30;;;;;;;14.27;5.07;;;8.30;60.20;;;;;;9186867;19;20021;-66
2022/04/12 04:57:40;;;;;;;10.07;5.93;;;8.30;60.20;;;;;;9185227;19;20079;-66
2022/04/12 05:00:45;;;;;;;12.77;5.65;;;8.30;60.30;;;;;;9185339;19;20021;-66
2022/04/12 05:03:53;;;;;;;11.93;5.68;;;8.30;60.30;;;;;;9184579;19;20014;-67
2022/04/12 05:06:58;;;;;;;11.00;5.60;;;8.30;60.40;;;;;;9184790;19;20015;-69
2022/04/12 05:10:03;;;;;;;16.90;6.65;;;8.30;60.40;;;;;;9181528;19;20555;-66
2022/04/12 05:13:08;;;;;;;8.55;5.07;;;8.20;61.00;;;;;;9179997;19;20363;-66
2022/04/12 05:16:13;;;;;;;10.88;6.20;;;8.20;60.40;;;;;;9181813;19;20018;-67
2022/04/12 05:19:21;;;;;;;10.55;5.90;;;8.20;60.40;;;;;;9179824;19;20090;-66
2022/04/12 05:22:27;;;;;;;13.18;5.72;;;8.20;60.50;;;;;;9182728;19;20014;-66
2022/04/12 05:25:32;;;;;;;11.57;5.82;;;8.20;60.50;;;;;;9186150;19;20011;-66
2022/04/12 05:28:37;;;;;;;11.85;5.43;;;8.20;60.60;;;;;;9185929;19;20007;-67
2022/04/12 05:31:42;;;;;;;11.45;5.60;;;8.20;60.60;;;;;;9183768;19;20345;-66
2022/04/12 05:34:49;;;;;;;12.48;6.18;;;8.20;60.60;;;;;;9184432;19;20018;-68
2022/04/12 05:37:56;;;;;;;10.43;6.18;;;8.20;60.80;;;;;;9180300;19;20022;-66
2022/04/12 05:41:01;;;;;;;12.52;5.95;;;8.20;60.80;;;;;;9183277;19;20029;-67
2022/04/12 05:44:06;;;;;;;12.88;6.25;;;8.20;60.80;;;;;;9186169;19;20011;-67
2022/04/12 05:47:13;;;;;;;18.17;6.60;;;8.20;60.90;;;;;;9183262;19;20034;-66
2022/04/12 05:50:22;;;;;;;12.15;6.22;;;8.20;60.90;;;;;;9183530;19;20478;-67
2022/04/12 05:53:28;;;;;;;12.57;5.90;;;8.20;61.00;;;;;;9184360;19;20007;-67
2022/04/12 05:56:33;;;;;;;16.38;6.50;;;8.30;61.00;;;;;;9182995;19;20043;-67
2022/04/12 05:59:38;;;;;;;9.38;5.78;;;8.30;61.10;;;;;;9184224;19;20022;-67
2022/04/12 06:02:44;;;;;;;12.07;5.93;;;8.30;61.10;;;;;;9181738;19;20021;-65
2022/04/12 06:05:53;;;;;;;13.45;7.25;;;8.40;61.10;;;;;;9180604;19;20011;-63
2022/04/12 06:08:58;;;;;;;11.38;5.78;;;8.40;61.20;;;;;;9182883;19;20022;-63
2022/04/12 06:12:03;;;;;;;12.25;5.97;;;8.50;61.20;;;;;;9183723;19;20018;-63
2022/04/12 06:15:09;;;;;;;16.15;6.30;;;8.50;61.20;;;;;;9182919;19;20011;-63
2022/04/12 06:18:15;;;;;;;10.20;6.35;;;8.60;61.30;;;;;;9182030;19;20022;-63
2022/04/12 06:21:22;;;;;;;12.48;6.18;;;8.70;61.30;;;;;;9183536;19;20082;-63
2022/04/12 06:24:27;;;;;;;13.85;6.35;;;8.70;61.20;;;;;;9176301;19;20055;-68
2022/04/12 06:27:34;;;;;;;14.20;6.30;;;8.80;61.20;;;;;;9166896;19;20018;-63
2022/04/12 06:30:39;;;;;;;11.57;5.53;;;8.80;61.20;;;;;;9174826;19;20010;-62
2022/04/12 06:33:44;;;;;;;10.73;6.05;;;8.90;61.30;;;;;;9174104;19;20419;-63
2022/04/12 06:36:52;;;;;;;14.05;6.30;;;8.90;61.20;;;;;;9169753;19;20015;-62
2022/04/12 06:39:59;;;;;;;10.48;5.78;;;9.00;61.30;;;;;;9174467;19;20880;-62
2022/04/12 06:43:04;;;;;;;11.13;6.30;;;9.00;61.30;;;;;;9175083;19;20007;-63
2022/04/12 06:46:09;;;;;;;10.10;6.05;;;9.10;61.30;;;;;;9181619;19;20014;-62
2022/04/12 06:49:14;;;;;;;10.75;7.07;;;9.20;61.40;;;;;;9183141;19;20017;-63
2022/04/12 06:52:23;;;;;;;13.63;6.25;;;9.20;61.40;;;;;;9180824;19;20456;-62
2022/04/12 06:55:29;;;;;;;13.80;6.57;;;9.30;61.50;;;;;;9180919;19;20019;-64
2022/04/12 06:58:34;;;;;;;9.73;5.72;;;9.40;61.40;;;;;;9180974;19;20018;-64
2022/04/12 07:01:41;;;;;;;11.20;6.00;;;9.50;61.50;;;;;;9182297;19;20498;-63
2022/04/12 07:04:46;;;;;;;15.18;6.38;;;9.60;61.40;;;;;;9180318;19;20021;-63
2022/04/12 07:07:54;;;;;;;14.50;5.93;;;9.70;61.50;;;;;;9179506;19;20030;-63
2022/04/12 07:11:00;;;;;;;10.95;5.90;;;9.90;61.60;;;;;;9179528;19;20102;-62
2022/04/12 07:14:05;;;;;;;11.52;6.20;;;10.00;61.50;;;;;;9181246;19;20014;-63
2022/04/12 07:17:10;;;;;;;8.98;5.38;;;10.10;61.50;;;;;;9181044;19;20360;-62
2022/04/12 07:20:15;;;;;;;13.52;5.93;;;10.30;61.50;;;;;;9180134;19;20340;-61
2022/04/12 07:23:23;;;;;;;12.93;6.68;;;10.40;61.50;;;;;;9178465;19;20021;-62
2022/04/12 07:26:31;;;;;;;10.43;5.95;;;10.60;61.60;;;;;;9179613;19;20048;-66
2022/04/12 07:29:36;;;;;;;11.20;5.93;;;10.70;61.50;;;;;;9178247;19;20010;-63
2022/04/12 07:32:41;;;;;;;15.38;6.90;;;10.90;61.50;;;;;;9179647;19;20014;-62
2022/04/12 07:35:46;;;;;;;10.48;5.75;;;11.10;61.50;;;;;;9171199;19;20011;-65
2022/04/12 07:38:54;;;;;;;10.07;5.35;;;11.30;61.40;;;;;;9173236;19;20395;-64
2022/04/12 07:41:59;;;;;;;13.82;6.03;;;11.50;61.30;;;;;;9178332;19;20014;-64
2022/04/12 07:45:04;;;;;;;13.75;5.70;;;11.70;61.20;;;;;;9182603;19;20336;-64
2022/04/12 07:48:10;;;;;;;9.82;5.82;;;11.80;61.00;;;;;;9186986;19;20020;-64
2022/04/12 07:51:15;;;;;;;16.50;6.95;;;12.00;61.00;;;;;;9188798;19;20363;-64
2022/04/12 07:54:22;;;;;;;13.25;6.03;;;12.10;60.90;;;;;;9189489;19;20038;-63
2022/04/12 07:57:29;;;;;;;12.13;6.22;;;12.30;60.80;;;;;;9182620;19;20330;-64
2022/04/12 08:00:34;;;;;;;10.38;6.45;;;12.40;60.70;;;;;;9182581;19;20022;-62
2022/04/12 08:03:40;;;;;;;10.77;6.43;;;12.50;60.70;;;;;;9181341;19;20010;-62
2022/04/12 08:06:45;;;;;;;15.23;5.82;;;12.60;60.60;;;;;;9181466;19;20006;-64
2022/04/12 08:09:53;;;;;;;8.93;5.28;;;12.80;60.70;;;;;;9184579;19;20021;-63
2022/04/12 08:12:58;;;;;;;12.07;6.13;;;12.90;60.70;;;;;;9189394;19;20498;-63
2022/04/12 08:16:08;;;;;;;10.30;5.38;;;13.00;60.70;;;;;;9185306;19;20047;-62
2022/04/12 08:19:13;;;;;;;11.18;5.90;;;13.20;60.60;;;;;;9189901;19;20010;-63
2022/04/12 08:22:18;;;;;;;10.10;5.43;;;13.40;60.60;;;;;;9187666;19;20006;-64
2022/04/12 08:25:46;;;;;;;8.68;5.32;;;13.50;60.50;;;;;;9188655;19;20037;-64
2022/04/12 08:28:51;;;;;;;14.57;5.97;;;13.70;60.40;;;;;;9187995;19;20411;-65
2022/04/12 08:31:56;;;;;;;13.40;5.88;;;13.90;60.30;;;;;;9179559;19;20014;-62
2022/04/12 08:35:01;;;;;;;10.82;5.00;;;14.00;60.20;;;;;;9180995;19;20014;-63
2022/04/12 08:38:06;;;;;;;10.45;6.03;;;14.20;60.00;;;;;;9182745;19;20468;-62
2022/04/12 08:41:16;;;;;;;10.63;5.10;;;14.40;59.90;;;;;;9187418;19;20020;-63
2022/04/12 08:44:21;;;;;;;8.95;5.28;;;14.60;59.70;;;;;;9178392;19;20129;-65
2022/04/12 08:47:27;;;;;;;11.00;5.15;;;14.70;59.70;;;;;;9178135;19;20019;-65
2022/04/12 08:50:33;;;;;;;9.68;5.38;;;14.90;59.60;;;;;;9186828;19;20025;-63
2022/04/12 08:53:38;;;;;;;14.23;5.07;;;15.10;59.60;;;;;;9187460;19;20571;-64
2022/04/12 08:56:48;;;;;;;8.60;5.00;;;15.30;59.50;;;;;;9186571;19;20507;-62
2022/04/12 08:59:56;;;;;;;9.52;4.95;;;15.50;59.40;;;;;;9187199;19;20033;-64
2022/04/12 09:03:03;;;;;;;8.63;4.70;;;15.70;59.40;;;;;;9184535;19;20014;-63
2022/04/12 09:06:10;;;;;;;14.00;5.45;;;15.90;59.30;;;;;;9187018;19;20359;-63
2022/04/12 09:09:18;;;;;;;11.98;4.88;;;16.10;59.10;;;;;;9182642;19;20026;-64
2022/04/12 09:12:26;;;;;;;6.88;4.70;;;16.30;58.90;;;;;;9185713;19;20025;-64
2022/04/12 09:15:31;;;;;;;9.38;5.53;;;16.50;58.70;;;;;;9184894;19;20400;-64
2022/04/12 09:18:39;;;;;;;8.23;4.97;;;16.60;58.60;;;;;;9185010;19;20014;-64
2022/04/12 09:21:48;;;;;;;12.30;5.47;;;16.90;58.50;;;;;;9185777;19;20018;-63
2022/04/12 09:24:56;;;;;;;12.57;5.60;;;17.00;58.30;;;;;;9180061;19;20683;-64
2022/04/12 09:28:05;;;;;;;9.45;5.47;;;17.20;58.20;;;;;;9182219;19;20006;-64
2022/04/12 09:31:18;;;;;;;8.90;4.85;;;17.40;58.00;;;;;;9183810;19;20015;-63
2022/04/12 09:34:23;;;;;;;8.60;4.40;;;17.60;57.70;;;;;;9181148;19;20006;-64
2022/04/12 09:37:49;;;;;;;10.68;4.72;;;17.80;57.80;;;;;;9177080;19;20044;-63
2022/04/12 09:41:17;;;;;;;12.75;4.57;;;18.00;57.70;;;;;;9180112;19;20018;-64
2022/04/12 09:44:25;;;;;;;10.18;5.20;;;18.20;57.30;;;;;;9179421;19;20010;-63
2022/04/12 09:47:30;;;;;;;12.85;4.80;;;18.40;57.20;;;;;;9181563;19;20026;-63
2022/04/12 09:51:02;;;;;;;11.60;4.93;;;18.50;57.10;;;;;;9182479;19;20341;-63
2022/04/12 09:54:08;;;;;;;14.80;4.97;;;18.60;56.70;;;;;;9180449;19;20021;-64
2022/04/12 09:57:15;;;;;;;8.93;4.78;;;18.80;56.70;;;;;;9182104;19;20025;-63
2022/04/12 10:00:29;;;;;;;13.65;5.25;;;18.90;56.50;;;;;;9179854;19;20011;-64
2022/04/12 10:03:35;;;;;;;7.93;4.15;;;19.10;56.40;;;;;;9179389;19;20368;-64
2022/04/12 10:06:43;;;;;;;11.52;4.68;;;19.20;56.30;;;;;;9181289;19;20011;-63
2022/04/12 10:09:51;;;;;;;12.60;4.97;;;19.30;56.30;;;;;;9174032;19;20506;-64
2022/04/12 10:12:56;;;;;;;15.80;5.07;;;19.50;56.10;;;;;;9180364;19;20018;-63
2022/04/12 10:16:05;;;;;;;8.25;4.63;;;19.60;56.00;;;;;;9181832;19;20028;-65
2022/04/12 10:19:11;;;;;;;9.50;5.00;;;19.80;55.80;;;;;;9179451;19;20014;-63
2022/04/12 10:22:16;;;;;;;10.15;4.63;;;20.00;55.80;;;;;;9181144;19;20021;-64
2022/04/12 10:25:25;;;;;;;8.75;4.95;;;20.10;55.60;;;;;;9177384;19;20098;-64
2022/04/12 10:28:32;;;;;;;12.25;4.82;;;20.30;55.50;;;;;;9179056;19;20018;-65
2022/04/12 10:31:42;;;;;;;8.23;4.95;;;20.40;55.30;;;;;;9180363;19;20020;-65
2022/04/12 10:35:01;;;;;;;8.82;5.22;;;20.60;55.20;;;;;;9178564;19;20065;-64
2022/04/12 10:38:07;;;;;;;10.80;5.35;;;20.70;54.80;;;;;;9173223;19;20112;-65
2022/04/12 10:41:32;;;;;;;12.02;4.53;;;20.90;54.90;;;;;;9178602;19;20014;-63
2022/04/12 10:44:43;;;;;;;11.75;5.25;;;21.00;54.60;;;;;;9176700;19;20020;-63
2022/04/12 10:47:51;;;;;;;10.80;5.43;;;21.10;54.50;;;;;;9177728;19;20022;-65
2022/04/12 10:50:56;;;;;;;8.40;5.13;;;21.30;54.40;;;;;;9179966;19;20002;-62
2022/04/12 10:54:01;;;;;;;13.52;6.35;;;21.40;54.30;;;;;;9180155;19;20010;-63
2022/04/12 10:57:26;;;;;;;9.55;5.53;;;21.50;54.10;;;;;;9179704;19;20010;-63
2022/04/12 11:00:33;;;;;;;15.38;5.50;;;21.60;53.60;;;;;;9177360;19;20353;-63
2022/04/12 11:03:57;;;;;;;11.45;6.10;;;21.70;54.00;;;;;;9175282;19;20093;-64
2022/04/12 11:07:02;;;;;;;10.48;5.50;;;21.80;53.50;;;;;;9175880;19;20015;-62
2022/04/12 11:10:23;;;;;;;10.75;4.80;;;21.90;54.50;;;;;;9179882;19;20010;-63
2022/04/12 11:13:30;;;;;;;12.90;5.07;;;22.10;53.70;;;;;;9176473;19;20361;-63
2022/04/12 11:16:51;;;;;;;9.32;4.85;;;22.20;53.50;;;;;;9177542;19;20483;-64
2022/04/12 11:20:00;;;;;;;8.75;4.15;;;22.30;53.00;;;;;;9182430;19;20011;-63
2022/04/12 11:23:08;;;;;;;12.20;4.97;;;22.40;53.00;;;;;;9186882;19;20021;-63
2022/04/12 11:26:29;;;;;;;11.82;5.13;;;22.50;53.00;;;;;;9183366;19;20044;-62
2022/04/12 11:29:35;;;;;;;8.75;4.70;;;22.60;52.40;;;;;;9185836;19;20479;-63
2022/04/12 11:32:41;;;;;;;9.85;4.75;;;22.60;52.70;;;;;;9183972;19;20033;-64
2022/04/12 11:35:49;;;;;;;10.43;5.38;;;22.70;52.40;;;;;;9184572;19;20014;-64
2022/04/12 11:38:53;;;;;;;12.98;6.03;;;22.80;52.40;;;;;;9188251;19;20003;-64
2022/04/12 11:42:00;;;;;;;7.40;4.85;;;22.90;52.40;;;;;;9186961;19;20015;-62
2022/04/12 11:45:08;;;;;;;8.77;4.57;;;22.90;52.20;;;;;;9188913;19;20394;-63
2022/04/12 11:48:13;;;;;;;8.13;4.88;;;23.00;52.80;;;;;;9189850;19;20025;-63
2022/04/12 11:51:22;;;;;;;11.82;5.85;;;23.00;52.10;;;;;;9188190;19;20021;-62
2022/04/12 11:54:29;;;;;;;8.95;4.35;;;23.10;51.90;;;;;;9188128;19;20014;-64
2022/04/12 11:57:34;;;;;;;9.63;4.35;;;23.10;51.80;;;;;;9188703;19;20043;-62
2022/04/12 12:00:39;;;;;;;9.90;4.93;;;23.20;51.90;;;;;;9189357;19;20407;-62
2022/04/12 12:03:44;;;;;;;10.50;5.18;;;23.30;51.80;;;;;;9187156;19;20121;-63
2022/04/12 12:06:59;;;;;;;9.60;5.28;;;23.30;51.70;;;;;;9189350;19;20025;-62
2022/04/12 12:10:07;;;;;;;11.50;5.40;;;23.40;51.40;;;;;;9188053;19;20034;-63
2022/04/12 12:13:13;;;;;;;11.73;4.80;;;23.50;51.50;;;;;;9189611;19;20361;-63
2022/04/12 12:16:18;;;;;;;9.65;4.80;;;23.60;51.30;;;;;;9187331;19;20107;-64
2022/04/12 12:19:23;;;;;;;9.30;4.93;;;23.70;51.30;;;;;;9189208;19;20025;-61
2022/04/12 12:22:38;;;;;;;8.68;4.85;;;23.80;51.20;;;;;;9190477;19;20030;-62
2022/04/12 12:25:45;;;;;;;10.27;4.97;;;23.90;50.80;;;;;;9185487;19;20014;-63
2022/04/12 12:28:50;;;;;;;14.13;5.22;;;24.00;51.00;;;;;;9184876;19;20022;-63
2022/04/12 12:31:58;;;;;;;9.98;5.10;;;24.10;51.00;;;;;;9186829;19;20483;-62
2022/04/12 12:35:05;;;;;;;11.52;5.22;;;24.10;50.70;;;;;;9186172;19;20015;-63
2022/04/12 12:38:15;;;;;;;12.18;4.72;;;24.20;50.70;;;;;;9182034;19;20019;-63
2022/04/12 12:41:28;;;;;;;7.85;4.68;;;24.20;50.40;;;;;;9187534;19;20015;-62
2022/04/12 12:44:35;;;;;;;14.55;4.57;;;24.20;50.20;;;;;;9188239;19;20021;-63
2022/04/12 12:47:43;;;;;;;9.82;4.55;;;24.20;50.40;;;;;;9185186;19;20025;-62
2022/04/12 12:50:49;;;;;;;12.95;5.00;;;24.20;50.40;;;;;;9186796;19;20470;-62
2022/04/12 12:54:04;;;;;;;10.20;4.55;;;24.20;50.40;;;;;;9188048;19;20022;-63
2022/04/12 12:57:10;;;;;;;10.43;4.82;;;24.10;50.00;;;;;;9187871;19;20034;-62
2022/04/12 13:00:17;;;;;;;12.27;4.72;;;24.10;50.10;;;;;;9184604;19;20094;-63
2022/04/12 13:03:26;;;;;;;8.50;4.45;;;24.00;50.00;;;;;;9184800;19;20019;-63
2022/04/12 13:06:39;;;;;;;9.70;4.90;;;24.00;50.10;;;;;;9183624;19;20025;-63
2022/04/12 13:09:51;;;;;;;9.35;3.90;;;23.90;49.90;;;;;;9185036;19;20490;-62
2022/04/12 13:12:56;;;;;;;9.55;4.70;;;23.90;50.10;;;;;;9184798;19;20111;-62
2022/04/12 13:16:01;;;;;;;7.90;4.63;;;23.90;50.30;;;;;;9187162;19;20044;-62
2022/04/12 13:19:07;;;;;;;13.70;4.15;;;23.90;50.20;;;;;;9186369;19;20424;-62
2022/04/12 13:22:12;;;;;;;7.32;4.00;;;23.90;50.20;;;;;;9184841;19;20026;-62
2022/04/12 13:25:20;;;;;;;7.70;3.50;;;24.00;50.20;;;;;;9183947;19;20026;-62
2022/04/12 13:28:25;;;;;;;7.35;4.25;;;24.00;50.00;;;;;;9183883;19;20006;-62
2022/04/12 13:31:30;;;;;;;9.10;3.17;;;24.10;50.10;;;;;;9183291;19;20014;-62
2022/04/12 13:34:38;;;;;;;9.77;3.33;;;24.20;50.00;;;;;;9184255;19;20014;-63
2022/04/12 13:37:44;;;;;;;8.75;3.65;;;24.20;49.90;;;;;;9182394;19;20081;-63
2022/04/12 13:40:57;;;;;;;8.43;3.45;;;24.20;49.80;;;;;;9181685;19;20473;-62
2022/04/12 13:44:03;;;;;;;9.73;3.50;;;24.30;49.60;;;;;;9179643;19;20030;-63
2022/04/12 13:47:28;;;;;;;10.57;4.13;;;24.30;49.60;;;;;;9178346;19;20487;-62
2022/04/12 13:50:34;;;;;;;8.40;3.58;;;24.20;49.40;;;;;;9180272;19;20022;-62
2022/04/12 13:53:39;;;;;;;6.00;2.90;;;24.20;49.40;;;;;;9180219;19;20037;-62
2022/04/12 13:56:47;;;;;;;6.68;3.22;;;24.20;49.40;;;;;;9183311;19;20030;-64
2022/04/12 14:00:02;;;;;;;5.32;2.85;;;24.30;49.50;;;;;;9180097;19;20077;-62
2022/04/12 14:03:08;;;;;;;10.93;3.30;;;24.20;49.20;;;;;;9182571;19;20026;-62
2022/04/12 14:06:13;;;;;;;9.52;2.90;;;24.20;49.50;;;;;;9182824;19;20468;-65
2022/04/12 14:09:19;;;;;;;7.05;2.55;;;24.20;49.50;;;;;;9181531;19;20070;-68
2022/04/12 14:12:27;;;;;;;6.25;3.05;;;24.20;49.50;;;;;;9184839;19;20021;-66
2022/04/12 14:15:32;;;;;;;4.10;2.60;;;24.20;49.40;;;;;;9183642;19;20356;-67
2022/04/12 14:18:39;;;;;;;4.97;2.78;;;24.20;49.40;;;;;;9183764;19;20011;-69
2022/04/12 14:21:45;;;;;;;4.95;2.67;;;24.20;49.30;;;;;;9180619;19;20018;-66
2022/04/12 14:24:53;;;;;;;4.85;3.00;;;24.20;49.30;;;;;;9183004;19;20026;-66
2022/04/12 14:28:00;;;;;;;8.73;2.40;;;24.10;49.30;;;;;;9183998;19;20052;-67
2022/04/12 14:31:06;;;;;;;3.78;2.25;;;24.10;49.10;;;;;;9184527;19;20018;-67
2022/04/12 14:34:12;;;;;;;5.30;2.70;;;24.10;49.20;;;;;;9183809;19;20006;-68
2022/04/12 14:37:17;;;;;;;5.90;2.00;;;24.10;49.10;;;;;;9178701;19;20022;-68
2022/04/12 14:40:26;;;;;;;3.92;1.92;;;24.10;49.10;;;;;;9184351;19;20016;-69
2022/04/12 14:43:34;;;;;;;2.50;1.33;;;24.10;49.10;;;;;;9182410;19;20031;-69
2022/04/12 14:46:42;;;;;;;5.47;1.30;;;24.10;48.90;;;;;;9180930;19;20014;-68
2022/04/12 14:49:49;;;;;;;3.85;1.35;;;24.10;48.80;;;;;;9183660;19;20098;-68
2022/04/12 14:52:55;;;;;;;3.85;1.33;;;24.10;48.60;;;;;;9181439;19;20475;-67
2022/04/12 14:56:01;;;;;;;12.60;1.60;;;24.10;48.40;;;;;;9179270;19;20034;-69
2022/04/12 14:59:09;;;;;;;7.30;1.52;;;24.10;48.30;;;;;;9180285;19;20024;-68
2022/04/12 15:02:17;;;;;;;6.60;1.50;;;24.10;48.20;;;;;;9181942;19;20021;-68
2022/04/12 15:05:22;;;;;;;4.35;1.50;;;24.00;48.00;;;;;;9179336;19;20007;-68
2022/04/12 15:08:27;;;;;;;7.25;1.83;;;24.10;48.10;;;;;;9179734;19;20030;-68
2022/04/12 15:11:32;;;;;;;5.75;1.63;;;24.10;48.10;;;;;;9180411;19;20014;-68
2022/04/12 15:14:40;;;;;;;5.63;1.60;;;24.10;48.10;;;;;;9180644;19;20026;-68
2022/04/12 15:17:45;;;;;;;5.43;1.33;;;24.10;48.00;;;;;;9181022;19;20023;-68
2022/04/12 15:20:50;;;;;;;5.68;1.20;;;24.10;48.10;;;;;;9165909;19;20019;-66
2022/04/12 15:23:55;;;;;;;4.85;1.15;;;24.10;47.50;;;;;;9169029;19;20011;-68
2022/04/12 15:27:00;;;;;;;6.43;1.55;;;24.10;47.80;;;;;;9164780;19;20025;-68
2022/04/12 15:30:10;;;;;;;3.28;1.17;;;24.10;47.80;;;;;;9161348;19;20022;-68
2022/04/12 15:33:15;;;;;;;5.30;1.27;;;24.10;47.60;;;;;;9165859;19;20011;-67
2022/04/12 15:36:20;;;;;;;2.97;1.33;;;24.10;47.70;;;;;;9163535;19;20067;-64
2022/04/12 15:39:25;;;;;;;2.78;1.45;;;24.10;47.60;;;;;;9162399;19;20018;-66
2022/04/12 15:42:32;;;;;;;3.20;1.30;;;24.00;47.50;;;;;;9164848;19;20025;-64
2022/04/12 15:45:40;;;;;;;3.20;1.35;;;24.00;47.50;;;;;;9179256;19;20332;-66
2022/04/12 15:48:45;;;;;;;5.63;1.75;;;24.00;47.40;;;;;;9177797;19;20015;-66
2022/04/12 15:51:50;;;;;;;5.50;1.40;;;23.90;47.60;;;;;;9179139;19;20085;-66
2022/04/12 15:54:55;;;;;;;4.07;1.02;;;23.90;47.60;;;;;;9179392;19;20087;-65
2022/04/12 15:58:11;;;;;;;2.28;1.10;;;23.80;47.60;;;;;;9179534;19;20015;-66
2022/04/12 16:01:19;;;;;;;5.13;1.40;;;23.80;47.40;;;;;;9169920;19;20011;-65
2022/04/12 16:04:24;;;;;;;2.38;1.10;;;23.80;47.70;;;;;;9173161;19;20415;-65
2022/04/12 16:07:29;;;;;;;5.35;1.60;;;23.80;47.80;;;;;;9175386;19;20029;-64
2022/04/12 16:10:34;;;;;;;4.15;1.67;;;23.80;47.90;;;;;;9181147;19;20055;-68
2022/04/12 16:13:39;;;;;;;4.65;1.55;;;23.80;47.80;;;;;;9182283;19;20341;-64
2022/04/12 16:16:47;;;;;;;11.93;1.60;;;23.80;47.60;;;;;;9180113;19;20022;-63